createdAt,value
2023-05-06T00:00:07.089Z,15.6859
2023-05-06T00:01:10.139Z,15.6904
2023-05-06T00:02:12.999Z,15.5877
2023-05-06T00:03:15.982Z,15.6025
2023-05-06T00:04:18.934Z,15.7911
2023-05-06T00:05:21.968Z,15.6678
2023-05-06T00:06:24.818Z,15.7867
2023-05-06T00:07:27.777Z,15.7674
2023-05-06T00:08:30.703Z,15.5733
2023-05-06T00:09:33.695Z,15.7110
2023-05-06T00:10:36.606Z,15.7005
2023-05-06T00:11:39.573Z,15.5986
2023-05-06T00:12:42.506Z,15.4852
2023-05-06T00:13:45.469Z,15.4743
2023-05-06T00:14:48.495Z,15.4367
2023-05-06T00:15:51.424Z,15.4228
2023-05-06T00:16:54.346Z,15.4076
2023-05-06T00:17:57.484Z,15.3913
2023-05-06T00:19:00.387Z,15.4667
2023-05-06T00:20:03.204Z,15.2169
2023-05-06T00:21:06.165Z,15.3291
2023-05-06T00:22:09.089Z,15.3817
2023-05-06T00:23:12.053Z,15.2340
2023-05-06T00:24:15.037Z,15.1876
2023-05-06T00:25:17.969Z,15.2515
2023-05-06T00:26:20.896Z,15.4152
2023-05-06T00:27:23.845Z,15.3301
2023-05-06T00:28:26.800Z,15.3367
2023-05-06T00:29:29.742Z,15.3250
2023-05-06T00:30:32.736Z,15.3796
2023-05-06T00:31:35.771Z,15.3624
2023-05-06T00:32:38.659Z,15.1939
2023-05-06T00:33:41.584Z,15.2399
2023-05-06T00:34:44.661Z,15.3353
2023-05-06T00:35:47.546Z,15.4162
2023-05-06T00:36:50.410Z,15.3850
2023-05-06T00:37:53.386Z,15.3626
2023-05-06T00:38:56.376Z,15.4304
2023-05-06T00:39:59.346Z,15.2607
2023-05-06T00:41:02.229Z,15.3776
2023-05-06T00:42:05.176Z,15.4497
2023-05-06T00:43:08.126Z,15.3948
2023-05-06T00:44:11.077Z,15.4497
2023-05-06T00:45:14.024Z,15.5062
2023-05-06T00:46:17.070Z,15.4739
2023-05-06T00:47:19.947Z,15.4226
2023-05-06T00:48:23.015Z,15.4745
2023-05-06T00:49:25.820Z,15.5037
2023-05-06T00:50:28.785Z,15.2108
2023-05-06T00:51:31.750Z,15.3881
2023-05-06T00:52:34.714Z,15.3589
2023-05-06T00:53:37.649Z,15.2239
2023-05-06T00:54:40.604Z,15.2934
2023-05-06T00:55:43.605Z,15.2911
2023-05-06T00:56:46.533Z,15.1734
2023-05-06T00:57:49.447Z,15.2439
2023-05-06T00:58:52.393Z,15.1789
2023-05-06T00:59:55.349Z,15.3938
2023-05-06T01:00:58.303Z,15.2779
2023-05-06T01:02:01.376Z,15.0806
2023-05-06T01:03:04.335Z,15.2515
2023-05-06T01:04:07.196Z,15.2533
2023-05-06T01:05:10.379Z,15.3040
2023-05-06T01:06:13.052Z,15.2098
2023-05-06T01:07:16.013Z,15.2623
2023-05-06T01:08:19.168Z,15.2796
2023-05-06T01:09:21.936Z,15.3094
2023-05-06T01:10:24.879Z,15.2262
2023-05-06T01:11:27.820Z,15.2615
2023-05-06T01:12:30.766Z,15.3012
2023-05-06T01:13:33.721Z,15.2794
2023-05-06T01:14:36.660Z,15.2687
2023-05-06T01:15:39.621Z,15.2761
2023-05-06T01:16:42.617Z,15.2640
2023-05-06T01:17:45.521Z,15.2675
2023-05-06T01:18:48.450Z,15.1896
2023-05-06T01:19:51.446Z,15.2404
2023-05-06T01:20:54.382Z,15.3149
2023-05-06T01:21:57.364Z,15.1843
2023-05-06T01:23:00.305Z,15.1580
2023-05-06T01:24:03.206Z,15.1752
2023-05-06T01:25:06.203Z,15.2069
2023-05-06T01:26:09.099Z,15.1405
2023-05-06T01:27:12.060Z,15.0594
2023-05-06T01:28:15.005Z,15.0189
2023-05-06T01:29:17.909Z,14.8484
2023-05-06T01:30:20.859Z,14.8378
2023-05-06T01:31:23.837Z,14.8226
2023-05-06T01:32:26.768Z,14.9705
2023-05-06T01:33:29.691Z,14.9491
2023-05-06T01:34:32.644Z,14.9304
2023-05-06T01:35:35.591Z,14.9530
2023-05-06T01:36:38.531Z,15.0497
2023-05-06T01:37:41.581Z,14.9306
2023-05-06T01:38:44.413Z,15.0041
2023-05-06T01:39:47.392Z,15.0220
2023-05-06T01:40:50.304Z,14.8571
2023-05-06T01:41:53.253Z,14.9585
2023-05-06T01:42:56.207Z,14.9770
2023-05-06T01:43:59.156Z,14.8873
2023-05-06T01:45:02.137Z,14.9207
2023-05-06T01:46:05.044Z,14.8840
2023-05-06T01:47:07.998Z,15.0405
2023-05-06T01:48:10.930Z,14.7700
2023-05-06T01:49:13.869Z,14.9292
2023-05-06T01:50:16.844Z,14.9450
2023-05-06T01:51:19.764Z,14.9294
2023-05-06T01:52:22.704Z,14.9047
2023-05-06T01:53:25.706Z,14.8647
2023-05-06T01:54:28.565Z,14.7926
2023-05-06T01:55:31.583Z,14.8408
2023-05-06T01:56:34.453Z,14.7862
2023-05-06T01:57:37.403Z,14.7449
2023-05-06T01:58:40.358Z,14.8829
2023-05-06T01:59:43.288Z,14.9220
2023-05-06T02:00:46.252Z,14.8893
2023-05-06T02:01:49.209Z,14.8745
2023-05-06T02:02:52.241Z,14.8825
2023-05-06T02:03:55.120Z,14.8811
2023-05-06T02:04:58.038Z,14.8589
2023-05-06T02:06:01.033Z,14.9119
2023-05-06T02:07:03.888Z,14.9078
2023-05-06T02:08:06.822Z,14.7560
2023-05-06T02:09:09.836Z,14.8345
2023-05-06T02:10:12.744Z,14.7459
2023-05-06T02:11:15.661Z,14.7579
2023-05-06T02:12:18.628Z,14.9002
2023-05-06T02:13:21.600Z,14.8336
2023-05-06T02:14:24.498Z,14.8000
2023-05-06T02:15:27.565Z,14.7948
2023-05-06T02:16:30.394Z,14.9177
2023-05-06T02:17:33.381Z,14.8723
2023-05-06T02:18:36.312Z,14.8562
2023-05-06T02:19:39.204Z,14.6402
2023-05-06T02:20:42.165Z,14.7170
2023-05-06T02:21:45.101Z,14.7948
2023-05-06T02:22:48.111Z,14.6180
2023-05-06T02:23:51.041Z,14.6913
2023-05-06T02:24:53.993Z,14.7116
2023-05-06T02:25:56.864Z,14.8090
2023-05-06T02:26:59.815Z,14.8552
2023-05-06T02:28:02.762Z,14.7539
2023-05-06T02:29:05.711Z,14.8074
2023-05-06T02:30:08.648Z,14.7979
2023-05-06T02:31:11.620Z,14.7277
2023-05-06T02:32:14.576Z,14.7893
2023-05-06T02:33:17.510Z,14.8961
2023-05-06T02:34:20.439Z,14.8562
2023-05-06T02:35:23.397Z,14.8801
2023-05-06T02:36:26.344Z,14.8938
2023-05-06T02:37:29.262Z,14.8507
2023-05-06T02:38:32.216Z,14.8542
2023-05-06T02:39:35.214Z,14.8992
2023-05-06T02:40:38.157Z,14.8451
2023-05-06T02:41:41.073Z,14.8745
2023-05-06T02:42:44.031Z,14.8821
2023-05-06T02:43:46.933Z,14.8603
2023-05-06T02:44:49.871Z,14.8464
2023-05-06T02:45:52.828Z,14.8162
2023-05-06T02:46:55.764Z,14.8228
2023-05-06T02:47:58.762Z,14.7989
2023-05-06T02:49:01.644Z,14.8486
2023-05-06T02:50:04.591Z,14.8949
2023-05-06T02:51:07.562Z,14.8831
2023-05-06T02:52:10.475Z,14.8690
2023-05-06T02:53:13.453Z,14.8690
2023-05-06T02:54:16.345Z,14.8930
2023-05-06T02:55:19.305Z,14.8314
2023-05-06T02:56:22.314Z,14.7396
2023-05-06T02:57:25.178Z,14.7743
2023-05-06T02:58:28.151Z,14.6391
2023-05-06T02:59:31.071Z,14.6217
2023-05-06T03:00:34.120Z,14.6599
2023-05-06T03:01:37.104Z,14.7159
2023-05-06T03:02:39.913Z,14.7365
2023-05-06T03:03:42.834Z,14.7998
2023-05-06T03:04:45.769Z,14.7965
2023-05-06T03:05:48.730Z,14.8306
2023-05-06T03:06:51.660Z,14.8441
2023-05-06T03:07:54.618Z,14.8314
2023-05-06T03:08:57.538Z,14.8121
2023-05-06T03:10:00.519Z,14.8273
2023-05-06T03:11:03.437Z,14.7829
2023-05-06T03:12:06.394Z,14.8260
2023-05-06T03:13:09.560Z,14.7379
2023-05-06T03:14:12.262Z,14.6482
2023-05-06T03:15:15.257Z,14.5816
2023-05-06T03:16:18.185Z,14.6309
2023-05-06T03:17:21.087Z,14.6931
2023-05-06T03:18:24.052Z,14.6192
2023-05-06T03:19:26.958Z,14.7579
2023-05-06T03:20:29.910Z,14.6286
2023-05-06T03:21:32.873Z,14.6975
2023-05-06T03:22:35.871Z,14.8032
2023-05-06T03:23:38.753Z,14.8289
2023-05-06T03:24:41.689Z,14.8451
2023-05-06T03:25:44.629Z,14.8723
2023-05-06T03:26:47.584Z,14.8983
2023-05-06T03:27:50.525Z,14.8577
2023-05-06T03:28:53.497Z,14.8164
2023-05-06T03:29:56.396Z,14.8129
2023-05-06T03:30:59.430Z,14.7583
2023-05-06T03:32:02.383Z,14.7451
2023-05-06T03:33:05.403Z,14.7340
2023-05-06T03:34:08.249Z,14.7579
2023-05-06T03:35:11.498Z,14.8938
2023-05-06T03:36:14.141Z,14.6691
2023-05-06T03:37:17.071Z,14.6683
2023-05-06T03:38:20.018Z,14.6868
2023-05-06T03:39:22.989Z,14.7472
2023-05-06T03:40:25.890Z,14.7344
2023-05-06T03:41:28.855Z,14.7075
2023-05-06T03:42:31.784Z,14.7324
2023-05-06T03:43:34.850Z,14.7663
2023-05-06T03:44:37.677Z,14.7786
2023-05-06T03:45:40.606Z,14.7203
2023-05-06T03:46:43.667Z,14.7334
2023-05-06T03:47:46.826Z,14.6866
2023-05-06T03:48:49.416Z,14.6089
2023-05-06T03:49:52.391Z,14.5943
2023-05-06T03:50:55.293Z,14.4520
2023-05-06T03:51:58.242Z,14.5816
2023-05-06T03:53:01.178Z,14.8180
2023-05-06T03:54:04.113Z,14.8228
2023-05-06T03:55:07.230Z,14.6868
2023-05-06T03:56:10.017Z,14.7003
2023-05-06T03:57:12.940Z,14.5395
2023-05-06T03:58:15.878Z,14.4775
2023-05-06T03:59:18.893Z,14.6319
2023-05-06T04:00:21.786Z,14.7231
2023-05-06T04:01:24.700Z,14.6514
2023-05-06T04:02:27.705Z,14.5340
2023-05-06T04:03:30.692Z,14.5904
2023-05-06T04:04:33.529Z,14.5783
2023-05-06T04:05:36.632Z,14.5245
2023-05-06T04:06:39.434Z,14.5728
2023-05-06T04:07:42.379Z,14.5284
2023-05-06T04:08:45.344Z,14.4516
2023-05-06T04:09:48.238Z,14.5522
2023-05-06T04:10:51.245Z,14.5870
2023-05-06T04:11:54.112Z,14.5163
2023-05-06T04:12:57.109Z,14.5401
2023-05-06T04:14:00.081Z,14.6219
2023-05-06T04:15:03.030Z,14.5522
2023-05-06T04:16:05.933Z,14.5709
2023-05-06T04:17:08.870Z,14.6028
2023-05-06T04:18:11.798Z,14.5461
2023-05-06T04:19:14.884Z,14.5742
2023-05-06T04:20:17.682Z,14.4296
2023-05-06T04:21:20.654Z,14.2955
2023-05-06T04:22:23.595Z,14.3353
2023-05-06T04:23:26.572Z,14.4904
2023-05-06T04:24:29.469Z,14.4048
2023-05-06T04:25:32.408Z,14.3398
2023-05-06T04:26:35.332Z,14.3655
2023-05-06T04:27:38.296Z,14.3064
2023-05-06T04:28:41.226Z,14.4347
2023-05-06T04:29:44.213Z,14.4060
2023-05-06T04:30:47.182Z,14.2330
2023-05-06T04:31:50.121Z,14.2587
2023-05-06T04:32:53.047Z,14.4041
2023-05-06T04:33:55.939Z,14.3142
2023-05-06T04:34:58.900Z,14.3503
2023-05-06T04:36:01.882Z,14.4220
2023-05-06T04:37:04.798Z,14.4140
2023-05-06T04:38:07.735Z,14.2620
2023-05-06T04:39:10.683Z,14.3281
2023-05-06T04:40:13.730Z,14.2881
2023-05-06T04:41:16.578Z,14.3084
2023-05-06T04:42:19.507Z,14.3633
2023-05-06T04:43:22.470Z,14.4035
2023-05-06T04:44:25.415Z,14.3376
2023-05-06T04:45:28.386Z,14.3364
2023-05-06T04:46:31.426Z,14.3690
2023-05-06T04:47:34.300Z,14.2260
2023-05-06T04:48:37.193Z,14.1961
2023-05-06T04:49:40.192Z,14.2544
2023-05-06T04:50:43.089Z,14.2295
2023-05-06T04:51:46.045Z,14.0638
2023-05-06T04:52:48.963Z,14.1609
2023-05-06T04:53:51.909Z,14.2546
2023-05-06T04:54:54.889Z,14.2059
2023-05-06T04:55:57.800Z,14.2158
2023-05-06T04:57:00.776Z,14.1722
2023-05-06T04:58:03.703Z,14.1498
2023-05-06T04:59:06.627Z,14.2790
2023-05-06T05:00:09.783Z,14.3873
2023-05-06T05:01:12.554Z,14.2729
2023-05-06T05:02:15.580Z,14.2795
2023-05-06T05:03:18.452Z,14.2922
2023-05-06T05:04:21.367Z,14.2098
2023-05-06T05:05:24.313Z,14.2881
2023-05-06T05:06:27.250Z,14.3146
2023-05-06T05:07:30.190Z,14.3127
2023-05-06T05:08:33.137Z,14.3265
2023-05-06T05:09:36.102Z,14.2957
2023-05-06T05:10:39.057Z,14.2449
2023-05-06T05:11:41.943Z,14.4364
2023-05-06T05:12:44.902Z,14.4614
2023-05-06T05:13:47.836Z,14.3754
2023-05-06T05:14:50.770Z,14.4267
2023-05-06T05:15:53.754Z,14.3721
2023-05-06T05:16:56.699Z,14.3645
2023-05-06T05:17:59.676Z,14.3107
2023-05-06T05:19:03.727Z,14.2947
2023-05-06T05:20:05.496Z,14.2546
2023-05-06T05:21:08.478Z,14.3592
2023-05-06T05:22:11.391Z,14.3127
2023-05-06T05:23:14.340Z,14.2427
2023-05-06T05:24:17.321Z,14.4680
2023-05-06T05:25:20.225Z,14.4853
2023-05-06T05:26:23.212Z,14.5029
2023-05-06T05:27:26.103Z,14.4479
2023-05-06T05:28:29.038Z,14.4851
2023-05-06T05:29:32.050Z,14.4997
2023-05-06T05:30:34.943Z,14.5340
2023-05-06T05:31:37.965Z,14.5775
2023-05-06T05:32:40.881Z,14.4816
2023-05-06T05:33:43.831Z,14.5272
2023-05-06T05:34:46.692Z,14.6213
2023-05-06T05:35:49.674Z,14.6362
2023-05-06T05:36:52.571Z,14.5220
2023-05-06T05:37:55.518Z,14.3893
2023-05-06T05:38:58.466Z,14.5303
2023-05-06T05:40:01.404Z,14.4943
2023-05-06T05:41:04.428Z,14.6022
2023-05-06T05:42:07.291Z,14.4518
2023-05-06T05:43:10.237Z,14.4056
2023-05-06T05:44:13.171Z,14.4200
2023-05-06T05:45:16.151Z,14.5847
2023-05-06T05:46:19.113Z,14.5469
2023-05-06T05:47:21.997Z,14.4399
2023-05-06T05:48:24.965Z,14.5007
2023-05-06T05:49:27.998Z,14.5202
2023-05-06T05:50:30.863Z,14.7094
2023-05-06T05:51:33.772Z,14.7492
2023-05-06T05:52:36.737Z,14.7687
2023-05-06T05:53:39.703Z,14.8260
2023-05-06T05:54:42.605Z,14.8154
2023-05-06T05:55:45.530Z,14.7792
2023-05-06T05:56:48.501Z,14.7063
2023-05-06T05:57:51.431Z,14.7474
2023-05-06T05:58:54.415Z,14.8336
2023-05-06T05:59:57.311Z,14.7059
2023-05-06T06:01:00.266Z,14.5726
2023-05-06T06:02:03.213Z,14.7320
2023-05-06T06:03:06.460Z,14.8020
2023-05-06T06:04:09.142Z,14.7482
2023-05-06T06:05:12.205Z,14.8466
2023-05-06T06:06:14.985Z,14.8355
2023-05-06T06:07:17.936Z,14.8951
2023-05-06T06:08:20.860Z,14.9197
2023-05-06T06:09:23.814Z,14.9456
2023-05-06T06:10:26.850Z,14.7174
2023-05-06T06:11:29.713Z,14.8616
2023-05-06T06:12:32.678Z,14.8530
2023-05-06T06:13:35.592Z,14.8180
2023-05-06T06:14:38.545Z,14.7763
2023-05-06T06:15:41.473Z,14.9012
2023-05-06T06:16:44.452Z,14.8051
2023-05-06T06:17:47.388Z,14.8022
2023-05-06T06:18:50.298Z,14.8552
2023-05-06T06:19:53.248Z,14.8141
2023-05-06T06:20:56.277Z,14.9444
2023-05-06T06:21:59.158Z,14.8486
2023-05-06T06:23:02.104Z,15.1151
2023-05-06T06:24:05.057Z,15.0994
2023-05-06T06:25:08.126Z,15.1492
2023-05-06T06:26:12.318Z,15.2165
2023-05-06T06:27:13.888Z,15.2492
2023-05-06T06:28:16.822Z,15.1153
2023-05-06T06:29:19.759Z,15.3162
2023-05-06T06:30:22.709Z,15.3168
2023-05-06T06:31:25.685Z,15.2001
2023-05-06T06:32:28.659Z,15.3147
2023-05-06T06:33:31.593Z,15.4887
2023-05-06T06:34:34.511Z,15.3854
2023-05-06T06:35:37.434Z,15.5908
2023-05-06T06:36:40.465Z,15.6282
2023-05-06T06:37:43.323Z,15.6308
2023-05-06T06:38:46.311Z,15.6744
2023-05-06T06:39:49.304Z,15.5844
2023-05-06T06:40:52.188Z,15.8155
2023-05-06T06:41:55.199Z,15.7824
2023-05-06T06:42:58.055Z,15.8215
2023-05-06T06:44:01.042Z,15.8808
2023-05-06T06:45:03.965Z,15.9166
2023-05-06T06:46:06.891Z,15.9737
2023-05-06T06:47:09.858Z,15.9305
2023-05-06T06:48:12.814Z,16.0061
2023-05-06T06:49:15.708Z,15.9519
2023-05-06T06:50:18.696Z,16.0503
2023-05-06T06:51:21.603Z,15.9800
2023-05-06T06:52:24.646Z,16.1084
2023-05-06T06:53:27.480Z,16.1657
2023-05-06T06:54:30.427Z,16.2545
2023-05-06T06:55:33.437Z,16.2746
2023-05-06T06:56:36.427Z,16.2680
2023-05-06T06:57:39.325Z,16.1873
2023-05-06T06:58:42.202Z,16.2740
2023-05-06T06:59:45.167Z,16.0704
2023-05-06T07:00:48.144Z,16.2226
2023-05-06T07:01:51.057Z,16.3167
2023-05-06T07:02:54.063Z,16.3350
2023-05-06T07:03:56.963Z,16.3245
2023-05-06T07:04:59.905Z,16.3629
2023-05-06T07:06:02.843Z,16.4124
2023-05-06T07:07:05.748Z,16.2970
2023-05-06T07:08:08.760Z,16.4636
2023-05-06T07:09:11.702Z,16.5123
2023-05-06T07:10:14.585Z,16.5422
2023-05-06T07:11:17.554Z,16.6026
2023-05-06T07:12:20.473Z,16.6456
2023-05-06T07:13:23.547Z,16.7501
2023-05-06T07:14:26.348Z,16.7600
2023-05-06T07:15:29.333Z,16.8171
2023-05-06T07:16:32.254Z,16.9243
2023-05-06T07:17:35.235Z,16.9896
2023-05-06T07:18:38.147Z,17.1192
2023-05-06T07:19:41.106Z,17.2671
2023-05-06T07:20:44.036Z,17.1172
2023-05-06T07:21:47.030Z,17.2464
2023-05-06T07:22:49.960Z,17.2450
2023-05-06T07:23:53.064Z,17.3943
2023-05-06T07:24:55.830Z,17.4378
2023-05-06T07:25:58.768Z,17.5196
2023-05-06T07:27:01.751Z,17.6190
2023-05-06T07:28:04.679Z,17.7470
2023-05-06T07:29:07.645Z,17.8602
2023-05-06T07:30:10.609Z,17.7879
2023-05-06T07:31:13.569Z,17.8513
2023-05-06T07:32:16.476Z,17.9386
2023-05-06T07:33:19.467Z,17.8382
2023-05-06T07:34:22.386Z,17.9853
2023-05-06T07:35:25.311Z,18.0185
2023-05-06T07:36:28.363Z,18.1184
2023-05-06T07:37:31.239Z,18.1422
2023-05-06T07:38:34.296Z,17.8404
2023-05-06T07:39:37.247Z,17.7505
2023-05-06T07:40:40.151Z,18.1617
2023-05-06T07:41:43.100Z,18.1138
2023-05-06T07:42:46.031Z,18.1167
2023-05-06T07:43:49.031Z,17.9031
2023-05-06T07:44:51.971Z,17.9351
2023-05-06T07:45:54.919Z,17.8376
2023-05-06T07:46:58.234Z,17.9323
2023-05-06T07:48:00.858Z,18.1282
2023-05-06T07:49:03.929Z,18.2215
2023-05-06T07:50:06.748Z,18.2755
2023-05-06T07:51:09.642Z,18.2157
2023-05-06T07:52:12.653Z,18.3638
2023-05-06T07:53:15.535Z,18.4187
2023-05-06T07:54:18.503Z,18.5257
2023-05-06T07:55:21.512Z,18.5479
2023-05-06T07:56:24.419Z,18.3854
2023-05-06T07:57:27.394Z,18.5709
2023-05-06T07:58:30.441Z,18.7691
2023-05-06T07:59:33.295Z,18.9153
2023-05-06T08:00:36.195Z,19.0390
2023-05-06T08:01:39.176Z,19.0187
2023-05-06T08:02:42.291Z,19.0959
2023-05-06T08:03:45.198Z,19.1351
2023-05-06T08:04:49.476Z,19.2194
2023-05-06T08:05:50.911Z,19.3502
2023-05-06T08:06:53.870Z,19.3149
2023-05-06T08:07:56.827Z,19.4176
2023-05-06T08:08:59.745Z,19.3940
2023-05-06T08:10:02.699Z,19.3405
2023-05-06T08:11:05.704Z,19.5123
2023-05-06T08:12:08.617Z,19.7507
2023-05-06T08:13:11.569Z,19.7581
2023-05-06T08:14:14.464Z,19.8424
2023-05-06T08:15:17.457Z,19.9017
2023-05-06T08:16:20.923Z,19.9812
2023-05-06T08:17:23.389Z,20.0229
2023-05-06T08:18:26.430Z,20.0878
2023-05-06T08:19:29.193Z,20.2275
2023-05-06T08:20:32.152Z,20.0685
2023-05-06T08:21:35.112Z,20.1790
2023-05-06T08:22:38.072Z,20.3536
2023-05-06T08:23:41.004Z,20.2349
2023-05-06T08:24:43.937Z,20.3171
2023-05-06T08:25:46.909Z,20.4126
2023-05-06T08:26:49.885Z,20.5670
2023-05-06T08:27:52.772Z,20.5705
2023-05-06T08:28:55.714Z,20.4742
2023-05-06T08:29:58.682Z,20.4697
2023-05-06T08:31:01.611Z,20.2891
2023-05-06T08:32:04.616Z,20.4457
2023-05-06T08:33:07.594Z,20.1069
2023-05-06T08:34:10.530Z,20.4113
2023-05-06T08:35:13.666Z,20.1751
2023-05-06T08:36:16.373Z,20.6435
2023-05-06T08:37:19.338Z,20.4968
2023-05-06T08:38:22.289Z,20.8554
2023-05-06T08:39:25.291Z,20.8179
2023-05-06T08:40:28.204Z,20.8748
2023-05-06T08:41:31.243Z,21.0541
2023-05-06T08:42:34.202Z,20.8809
2023-05-06T08:43:37.062Z,20.6917
2023-05-06T08:44:39.996Z,20.9146
2023-05-06T08:45:43.061Z,20.9234
2023-05-06T08:46:45.946Z,20.7562
2023-05-06T08:47:48.969Z,21.0574
2023-05-06T08:48:51.839Z,21.1266
2023-05-06T08:49:54.837Z,21.3447
2023-05-06T08:50:57.755Z,21.3558
2023-05-06T08:52:00.765Z,21.1445
2023-05-06T08:53:03.667Z,21.1592
2023-05-06T08:54:06.638Z,21.5173
2023-05-06T08:55:09.938Z,21.6342
2023-05-06T08:56:12.500Z,21.4787
2023-05-06T08:57:15.420Z,21.3308
2023-05-06T08:58:18.466Z,21.6333
2023-05-06T08:59:21.360Z,21.5132
2023-05-06T09:00:24.273Z,21.8909
2023-05-06T09:01:27.297Z,21.9803
2023-05-06T09:02:30.288Z,22.2042
2023-05-06T09:03:33.206Z,22.1633
2023-05-06T09:04:36.106Z,22.0528
2023-05-06T09:05:39.034Z,22.1273
2023-05-06T09:06:41.991Z,22.0674
2023-05-06T09:07:45.002Z,21.4563
2023-05-06T09:08:47.861Z,21.7173
2023-05-06T09:09:50.814Z,21.8932
2023-05-06T09:10:53.954Z,21.4594
2023-05-06T09:11:56.750Z,21.2114
2023-05-06T09:12:59.736Z,21.7116
2023-05-06T09:14:02.665Z,21.8420
2023-05-06T09:15:05.560Z,22.1491
2023-05-06T09:16:08.528Z,22.2403
2023-05-06T09:17:11.552Z,22.3139
2023-05-06T09:18:14.736Z,22.5338
2023-05-06T09:19:17.442Z,22.2835
2023-05-06T09:20:20.341Z,22.5885
2023-05-06T09:21:23.295Z,22.8428
2023-05-06T09:22:26.239Z,22.9309
2023-05-06T09:23:29.202Z,22.9794
2023-05-06T09:24:32.135Z,22.9977
2023-05-06T09:25:35.210Z,22.9354
2023-05-06T09:26:38.071Z,23.1269
2023-05-06T09:27:41.098Z,22.8835
2023-05-06T09:28:43.951Z,22.7253
2023-05-06T09:29:46.987Z,22.9432
2023-05-06T09:30:49.987Z,23.1797
2023-05-06T09:31:52.832Z,23.2503
2023-05-06T09:32:55.856Z,23.3382
2023-05-06T09:33:58.804Z,23.3826
2023-05-06T09:35:01.721Z,23.5313
2023-05-06T09:36:04.641Z,23.6211
2023-05-06T09:37:07.583Z,23.6975
2023-05-06T09:38:10.605Z,23.7603
2023-05-06T09:39:13.616Z,23.8335
2023-05-06T09:40:16.509Z,23.9331
2023-05-06T09:41:19.400Z,24.0781
2023-05-06T09:42:22.446Z,23.9403
2023-05-06T09:43:25.358Z,23.9425
2023-05-06T09:44:28.293Z,23.7488
2023-05-06T09:45:31.296Z,23.6759
2023-05-06T09:46:34.193Z,23.5414
2023-05-06T09:47:37.200Z,23.9699
2023-05-06T09:48:40.081Z,24.1981
2023-05-06T09:49:43.064Z,24.2484
2023-05-06T09:50:45.983Z,24.1436
2023-05-06T09:51:48.973Z,24.3197
2023-05-06T09:52:51.906Z,24.4820
2023-05-06T09:53:54.851Z,23.9882
2023-05-06T09:54:57.803Z,24.1806
2023-05-06T09:56:00.774Z,24.0911
2023-05-06T09:57:03.729Z,24.2283
2023-05-06T09:58:06.666Z,24.6192
2023-05-06T09:59:09.647Z,24.6075
2023-05-06T10:00:12.685Z,24.9641
2023-05-06T10:01:25.204Z,24.9279
2023-05-06T10:02:18.602Z,25.1144
2023-05-06T10:03:21.563Z,25.3712
2023-05-06T10:04:25.594Z,25.3607
2023-05-06T10:05:27.425Z,25.2654
2023-05-06T10:06:30.297Z,25.6140
2023-05-06T10:07:33.312Z,25.6968
2023-05-06T10:08:36.262Z,25.5624
2023-05-06T10:09:39.177Z,25.7545
2023-05-06T10:10:42.291Z,25.8282
2023-05-06T10:11:45.084Z,25.8473
2023-05-06T10:12:48.085Z,25.7666
2023-05-06T10:13:50.985Z,25.7463
2023-05-06T10:14:53.930Z,25.8775
2023-05-06T10:15:56.911Z,25.9597
2023-05-06T10:16:59.893Z,25.4985
2023-05-06T10:18:02.825Z,26.0318
2023-05-06T10:19:05.766Z,25.9574
2023-05-06T10:20:08.699Z,26.1521
2023-05-06T10:21:11.739Z,25.8642
2023-05-06T10:22:14.618Z,26.0168
2023-05-06T10:23:17.547Z,26.1041
2023-05-06T10:24:20.592Z,26.1743
2023-05-06T10:25:23.457Z,26.2548
2023-05-06T10:26:26.397Z,25.9730
2023-05-06T10:27:29.366Z,26.1532
2023-05-06T10:28:32.320Z,26.1791
2023-05-06T10:29:35.396Z,26.3154
2023-05-06T10:30:38.195Z,26.6416
2023-05-06T10:31:41.202Z,26.5708
2023-05-06T10:32:44.209Z,26.7530
2023-05-06T10:33:47.146Z,26.2563
2023-05-06T10:34:50.031Z,26.2066
2023-05-06T10:35:52.986Z,26.2557
2023-05-06T10:36:55.922Z,26.1563
2023-05-06T10:37:58.868Z,26.1277
2023-05-06T10:39:01.824Z,25.9170
2023-05-06T10:40:04.786Z,25.4564
2023-05-06T10:41:07.727Z,25.9135
2023-05-06T10:42:10.655Z,25.7898
2023-05-06T10:43:13.643Z,25.9821
2023-05-06T10:44:16.724Z,25.7949
2023-05-06T10:45:19.526Z,25.9903
2023-05-06T10:46:22.537Z,25.7569
2023-05-06T10:47:25.439Z,25.8611
2023-05-06T10:48:28.469Z,25.8623
2023-05-06T10:49:31.348Z,25.7586
2023-05-06T10:50:34.309Z,26.0455
2023-05-06T10:51:37.243Z,26.2343
2023-05-06T10:52:40.186Z,25.8958
2023-05-06T10:53:43.177Z,25.9057
2023-05-06T10:54:46.093Z,25.9120
2023-05-06T10:55:49.036Z,26.1172
2023-05-06T10:56:52.006Z,25.6372
2023-05-06T10:57:54.931Z,26.0484
2023-05-06T10:58:57.893Z,26.3050
2023-05-06T11:00:00.865Z,26.3105
2023-05-06T11:01:03.837Z,25.7161
2023-05-06T11:02:06.780Z,25.2451
2023-05-06T11:03:09.832Z,25.2430
2023-05-06T11:04:12.667Z,25.9658
2023-05-06T11:05:15.571Z,26.4038
2023-05-06T11:06:18.584Z,25.7576
2023-05-06T11:07:21.503Z,26.2029
2023-05-06T11:08:24.470Z,26.3144
2023-05-06T11:09:27.389Z,26.3746
2023-05-06T11:10:30.363Z,26.4933
2023-05-06T11:11:33.370Z,25.6421
2023-05-06T11:12:36.326Z,25.4519
2023-05-06T11:13:39.226Z,26.1376
2023-05-06T11:14:42.200Z,26.2703
2023-05-06T11:15:45.152Z,25.8907
2023-05-06T11:16:48.126Z,25.4236
2023-05-06T11:17:51.091Z,25.5172
2023-05-06T11:18:54.029Z,26.1854
2023-05-06T11:19:57.040Z,26.3592
2023-05-06T11:20:59.948Z,26.8115
2023-05-06T11:22:02.912Z,26.6815
2023-05-06T11:23:05.847Z,26.9076
2023-05-06T11:24:08.816Z,26.8341
2023-05-06T11:25:11.771Z,26.1367
2023-05-06T11:26:14.733Z,26.6636
2023-05-06T11:27:17.673Z,25.9726
2023-05-06T11:28:20.589Z,26.7109
2023-05-06T11:29:23.550Z,26.4106
2023-05-06T11:30:26.496Z,26.6677
2023-05-06T11:31:29.609Z,26.3421
2023-05-06T11:32:32.855Z,26.4939
2023-05-06T11:33:35.346Z,26.6959
2023-05-06T11:34:38.343Z,26.1959
2023-05-06T11:35:41.317Z,25.9490
2023-05-06T11:36:44.254Z,26.2965
2023-05-06T11:37:47.242Z,26.0121
2023-05-06T11:38:50.353Z,26.0075
2023-05-06T11:39:53.146Z,26.4818
2023-05-06T11:40:56.067Z,26.1754
2023-05-06T11:41:58.996Z,26.3861
2023-05-06T11:43:01.952Z,26.3956
2023-05-06T11:44:04.931Z,27.0171
2023-05-06T11:45:07.892Z,26.7752
2023-05-06T11:46:10.837Z,26.8062
2023-05-06T11:47:13.874Z,26.8972
2023-05-06T11:48:16.872Z,26.5570
2023-05-06T11:49:19.862Z,26.1752
2023-05-06T11:50:22.830Z,26.6457
2023-05-06T11:51:25.792Z,26.2892
2023-05-06T11:52:28.806Z,26.5048
2023-05-06T11:53:31.630Z,26.4019
2023-05-06T11:54:34.568Z,26.6225
2023-05-06T11:55:37.525Z,26.3997
2023-05-06T11:56:40.489Z,26.3113
2023-05-06T11:57:43.467Z,26.4147
2023-05-06T11:58:46.502Z,26.7509
2023-05-06T11:59:49.372Z,26.8376
2023-05-06T12:00:52.331Z,26.8783
2023-05-06T12:01:55.277Z,26.9255
2023-05-06T12:02:58.283Z,27.0089
2023-05-06T12:04:01.250Z,27.0184
2023-05-06T12:05:04.186Z,27.1272
2023-05-06T12:06:07.085Z,26.8372
2023-05-06T12:07:10.136Z,26.9754
2023-05-06T12:08:23.577Z,26.9247
2023-05-06T12:09:15.962Z,27.2006
2023-05-06T12:10:18.921Z,27.2149
2023-05-06T12:11:21.874Z,27.1517
2023-05-06T12:12:24.895Z,27.1100
2023-05-06T12:13:27.811Z,27.0845
2023-05-06T12:14:30.766Z,26.8653
2023-05-06T12:15:33.724Z,27.0239
2023-05-06T12:16:36.800Z,26.8056
2023-05-06T12:17:39.664Z,26.8625
2023-05-06T12:18:42.659Z,27.2236
2023-05-06T12:19:45.562Z,27.1940
2023-05-06T12:20:48.498Z,27.1428
2023-05-06T12:21:51.506Z,26.9947
2023-05-06T12:22:55.549Z,27.2133
2023-05-06T12:23:57.426Z,27.1270
2023-05-06T12:25:00.309Z,26.7867
2023-05-06T12:26:03.296Z,26.9863
2023-05-06T12:27:06.304Z,27.1260
2023-05-06T12:28:09.183Z,27.1886
2023-05-06T12:29:12.132Z,27.0432
2023-05-06T12:30:15.113Z,26.8388
2023-05-06T12:31:18.056Z,27.0705
2023-05-06T12:32:20.984Z,27.1835
2023-05-06T12:33:23.965Z,26.9187
2023-05-06T12:34:26.911Z,27.0270
2023-05-06T12:35:29.850Z,27.1287
2023-05-06T12:36:32.821Z,26.9035
2023-05-06T12:37:35.749Z,27.0763
2023-05-06T12:38:38.770Z,26.9171
2023-05-06T12:39:41.662Z,26.1441
2023-05-06T12:40:44.701Z,26.6073